Peabody, KS (66866)

4:51 PM CDT on October 20, 2014 (GMT -0500)
APRSWXNET Goessel KS US | Change Station
CLOSE
Current Station
Personal Weather Station
Location: North Newton, KS
Elevation: 1515 ft
Nearby Weather Stations

Elev 1515 ft 38.18 °N, 97.30 °W | Updated 58 minutes ago

Clear
Clear
78 °F
Feels Like 78 °F
N
8
Wind Variable Wind from NNE
Gusts 10.0 mph

Today
High -- | Low -- °F
--% Chance of Precip.
Yesterday
High -- | Low -- °F
Precip. -- in
7:42 AM 6:43 PM
Waning Crescent, 9% visible
Pressure 30.07 in
Visibility 10.0 miles
Clouds Clear
Heat Index 78 °F
Dew Point 46 °F
Humidity 32%
Rainfall -999.00 in
Snow Depth Not available.
UV 2 out of 12
Pollen 3.30 out of 12
Air Quality Not available.
Flu Activity No Activity
METAR KEWK 202135Z AUTO 07006KT 10SM CLR 24/07 A3007 RMK AO1

More Conditions Fewer Conditions

Pressure 30.07 in
Visibility 10.0 miles
Clouds Clear
Heat Index 78 °F
Dew Point 46 °F
Humidity 32%
Rainfall -999.00 in
Snow Depth Not available.
UV 2 out of 12
Pollen 3.30 out of 12
Air Quality Not available.
Flu Activity No Activity
METAR KEWK 202135Z AUTO 07006KT 10SM CLR 24/07 A3007 RMK AO1

More Conditions Fewer Conditions

10-Day Weather Forecast

Almanac

Astronomy

Oct. 20, 2014 Rise Set
Actual Time 7:42 AM CDT 6:43 PM CDT
Civil Twilight 7:15 AM CDT 7:10 PM CDT
Nautical Twilight 6:44 AM CDT 7:41 PM CDT
Astronomical Twilight 6:14 AM CDT 8:11 PM CDT
Moon 4:34 AM CDT 5:04 PM CDT
Length of Visible Light 11h 55m
Length of Day
11h 01m
Waning Crescent, 9% of the Moon is Illuminated
Today
Waning Crescent
Oct 23
New
Oct 30
First Quarter
Nov 6
Full
Nov 14
Last Quarter

Today's Extremes

State Highs State Lows

Community

WunderPhotos

Upload Photos

1,763,527 photos uploaded!

WunderBlogs® & News

Nearby

Snow Depth

Station Depth Elevation
No new snow has been reported.

Earthquake Activity

City Distance Mag. Time & Date
Helena, Oklahoma 117 miles 3.0 10:35 AM CDT
2014-10-20
Anthony, Kansas 90 miles 3.1 9:25 AM CDT
2014-10-20
Pawnee, Oklahoma 130 miles 3.0 10:04 PM CDT
2014-10-18
Pawnee, Oklahoma 130 miles 3.0 8:49 PM CDT
2014-10-18
Minimum magnitude displayed is 2.5.

Coastal Water Temperatures

Place Temperature
No Stations Reporting

Nearby Weather Stations